Current Weather

Ibadan

Ibadan, Nigeria (DNIB)

Report from: Sunday, February 25, 2024 10:00 AM +10
Current time: Sunday, February 25, 2024 11:54 AM +10

Nearby weather – Weather history – Daily summaries
Weather forecast

Temperature27.0°C (80.6°F)
Heat index29.7°C (85.5°F)
Dew point23.0°C (73.4°F)
Winds 2 kts (1 m/s, 2.3 mph) Southwest (220°)
Visibility6.2 mi. (10 km)
Clouds Ceiling: Broken clouds 1,100 ft. (335 m)
Altimeter29.91 in.Hg (1013 mB)
Relative humidity79 %
Density altitude1,769 ft. (539 m)
Flight conditions Marginal Visual Meteorological Conditions
Raw dataDNIB 250000Z 22002KT 9999 BKN011 27/23 Q1013
An error has occurred. This application may no longer respond until reloaded. Reload 🗙